(Closed) ATC Training at KMIA (Training Server 1)

METAR : KMIA 051153Z 13009KT 10SM FEW030 SCT240 24/22 A3002 RMK AO2 SLP166 T02390222 1025


Hope you can give me an advice once attending this. Thank You and “Selamat Menikmati” (Enjoy it)


Closed now. Hope you can attend my next session

You have to open for more than 10 mins to allow people to come.

I will always come along if you need. If you are looking to become IFATC then contact an IFATC scout and they will help train you up.

3 Likes

I think I will reopen my session again, are you interested?


Just reopened my session. Hope I can be an IFATC member someday

1 Like

This topic was automatically closed 90 days after the last reply. New replies are no longer allowed.